createdAt,value
2022-09-25T00:00:04.337Z,25.44
2022-09-25T00:02:30.786Z,25.64
2022-09-25T00:04:57.069Z,25.46
2022-09-25T00:07:23.401Z,25.65
2022-09-25T00:09:49.751Z,25.74
2022-09-25T00:12:16.101Z,25.68
2022-09-25T00:14:42.449Z,25.79
2022-09-25T00:17:08.800Z,25.52
2022-09-25T00:19:35.125Z,25.83
2022-09-25T00:22:01.467Z,25.58
2022-09-25T00:24:27.805Z,25.77
2022-09-25T00:26:54.138Z,25.83
2022-09-25T00:29:20.578Z,26.05
2022-09-25T00:31:46.848Z,25.99
2022-09-25T00:34:13.311Z,26.12
2022-09-25T00:36:39.576Z,26.20
2022-09-25T00:39:05.924Z,25.96
2022-09-25T00:41:32.299Z,26.01
2022-09-25T00:43:58.639Z,26.16
2022-09-25T00:46:26.242Z,26.00
2022-09-25T00:48:51.325Z,26.18
2022-09-25T00:51:17.662Z,26.41
2022-09-25T00:53:44.008Z,26.31
2022-09-25T00:56:10.350Z,26.17
2022-09-25T00:58:36.702Z,26.17
2022-09-25T01:01:03.105Z,26.08
2022-09-25T01:03:29.389Z,26.16
2022-09-25T01:05:55.745Z,26.10
2022-09-25T01:08:22.097Z,26.28
2022-09-25T01:10:48.440Z,26.44
2022-09-25T01:13:14.798Z,26.44
2022-09-25T01:15:41.140Z,26.55
2022-09-25T01:18:07.517Z,26.31
2022-09-25T01:20:33.859Z,26.31
2022-09-25T01:23:00.226Z,26.54
2022-09-25T01:25:26.559Z,26.22
2022-09-25T01:27:52.904Z,26.41
2022-09-25T01:30:19.241Z,26.35
2022-09-25T01:32:45.586Z,26.39
2022-09-25T01:35:11.931Z,26.47
2022-09-25T01:37:38.312Z,26.30
2022-09-25T01:40:04.698Z,26.60
2022-09-25T01:42:31.070Z,26.59
2022-09-25T01:44:57.408Z,26.72
2022-09-25T01:47:23.748Z,26.66
2022-09-25T01:49:50.087Z,26.66
2022-09-25T01:52:16.431Z,26.54
2022-09-25T01:54:42.768Z,26.52
2022-09-25T01:57:09.111Z,26.58
2022-09-25T01:59:35.450Z,26.66
2022-09-25T02:02:01.851Z,26.63
2022-09-25T02:04:28.143Z,26.57
2022-09-25T02:06:54.488Z,26.77
2022-09-25T02:09:20.837Z,26.65
2022-09-25T02:11:47.178Z,26.70
2022-09-25T02:14:13.565Z,26.66
2022-09-25T02:16:39.906Z,26.73
2022-09-25T02:19:06.210Z,26.52
2022-09-25T02:21:32.565Z,26.58
2022-09-25T02:23:58.908Z,26.71
2022-09-25T02:26:25.296Z,26.78
2022-09-25T02:28:51.628Z,26.86
2022-09-25T02:31:18.020Z,26.93
2022-09-25T02:33:44.303Z,26.88
2022-09-25T02:36:10.658Z,26.54
2022-09-25T02:38:36.997Z,26.52
2022-09-25T02:41:03.342Z,26.83
2022-09-25T02:43:29.682Z,26.73
2022-09-25T02:45:56.099Z,26.97
2022-09-25T02:48:22.369Z,26.96
2022-09-25T02:50:48.754Z,26.86
2022-09-25T02:53:15.092Z,26.85
2022-09-25T02:55:41.470Z,27.02
2022-09-25T02:58:07.813Z,26.89
2022-09-25T03:00:34.171Z,26.96
2022-09-25T03:03:01.723Z,26.90
2022-09-25T03:05:26.852Z,27.17
2022-09-25T03:07:53.184Z,27.07
2022-09-25T03:10:19.537Z,27.21
2022-09-25T03:12:45.876Z,27.03
2022-09-25T03:15:12.220Z,27.15
2022-09-25T03:17:38.566Z,27.06
2022-09-25T03:20:04.965Z,27.10
2022-09-25T03:22:33.237Z,26.80
2022-09-25T03:24:57.646Z,26.91
2022-09-25T03:27:23.988Z,27.20
2022-09-25T03:29:50.340Z,27.10
2022-09-25T03:32:16.688Z,27.39
2022-09-25T03:34:43.035Z,27.28
2022-09-25T03:37:09.410Z,27.07
2022-09-25T03:39:35.749Z,27.15
2022-09-25T03:42:02.094Z,27.27
2022-09-25T03:44:28.487Z,27.23
2022-09-25T03:46:54.824Z,27.27
2022-09-25T03:49:21.176Z,27.47
2022-09-25T03:51:47.516Z,27.33
2022-09-25T03:54:13.962Z,27.21
2022-09-25T03:56:40.234Z,27.54
2022-09-25T03:59:07.540Z,27.66
2022-09-25T04:01:33.042Z,27.57
2022-09-25T04:03:59.305Z,27.40
2022-09-25T04:06:25.652Z,27.37
2022-09-25T04:08:51.994Z,27.33
2022-09-25T04:11:18.326Z,27.53
2022-09-25T04:13:44.721Z,27.40
2022-09-25T04:16:11.056Z,27.44
2022-09-25T04:18:37.391Z,27.46
2022-09-25T04:21:03.727Z,27.50
2022-09-25T04:23:30.109Z,27.50
2022-09-25T04:25:57.690Z,27.27
2022-09-25T04:28:22.802Z,27.24
2022-09-25T04:30:49.149Z,27.23
2022-09-25T04:33:15.492Z,27.50
2022-09-25T04:35:41.835Z,27.54
2022-09-25T04:38:08.182Z,27.42
2022-09-25T04:40:34.563Z,27.53
2022-09-25T04:43:02.122Z,27.46
2022-09-25T04:45:27.212Z,27.31
2022-09-25T04:47:54.579Z,27.50
2022-09-25T04:50:20.916Z,27.42
2022-09-25T04:52:47.263Z,27.52
2022-09-25T04:55:13.620Z,27.65
2022-09-25T04:57:57.707Z,27.44
2022-09-25T05:00:06.317Z,27.54
2022-09-25T05:02:32.845Z,27.54
2022-09-25T05:04:59.010Z,27.44
2022-09-25T05:07:25.347Z,27.54
2022-09-25T05:09:51.695Z,27.57
2022-09-25T05:12:18.032Z,27.60
2022-09-25T05:14:44.382Z,27.73
2022-09-25T05:17:10.725Z,27.65
2022-09-25T05:19:37.108Z,27.54
2022-09-25T05:22:03.442Z,27.58
2022-09-25T05:24:29.812Z,27.61
2022-09-25T05:26:56.152Z,27.55
2022-09-25T05:29:22.533Z,27.51
2022-09-25T05:31:48.906Z,27.29
2022-09-25T05:34:15.220Z,27.35
2022-09-25T05:36:41.558Z,27.29
2022-09-25T05:39:12.174Z,27.31
2022-09-25T05:41:34.240Z,27.18
2022-09-25T05:44:00.589Z,27.21
2022-09-25T05:46:27.013Z,27.13
2022-09-25T05:48:53.285Z,27.09
2022-09-25T05:51:19.826Z,27.05
2022-09-25T05:53:46.170Z,27.04
2022-09-25T05:56:12.512Z,27.00
2022-09-25T05:58:38.878Z,27.02
2022-09-25T06:01:05.207Z,27.12
2022-09-25T06:03:31.566Z,27.09
2022-09-25T06:05:57.893Z,27.08
2022-09-25T06:08:24.246Z,27.09
2022-09-25T06:10:50.591Z,27.09
2022-09-25T06:13:16.940Z,27.13
2022-09-25T06:15:43.317Z,27.05
2022-09-25T06:18:09.638Z,27.05
2022-09-25T06:20:35.969Z,27.07
2022-09-25T06:23:03.590Z,27.06
2022-09-25T06:25:28.716Z,27.07
2022-09-25T06:27:55.082Z,26.99
2022-09-25T06:30:21.419Z,27.01
2022-09-25T06:32:48.863Z,27.02
2022-09-25T06:35:15.208Z,27.06
2022-09-25T06:37:41.559Z,27.14
2022-09-25T06:40:08.056Z,27.16
2022-09-25T06:42:34.248Z,27.11
2022-09-25T06:45:00.586Z,27.09
2022-09-25T06:47:27.126Z,27.15
2022-09-25T06:49:53.295Z,27.15
2022-09-25T06:52:19.628Z,27.19
2022-09-25T06:54:45.980Z,27.17
2022-09-25T06:57:12.354Z,27.23
2022-09-25T06:59:38.692Z,27.21
2022-09-25T07:02:05.135Z,27.19
2022-09-25T07:04:31.383Z,27.15
2022-09-25T07:06:57.726Z,27.18
2022-09-25T07:09:24.069Z,27.23
2022-09-25T07:11:50.414Z,27.25
2022-09-25T07:14:16.752Z,27.22
2022-09-25T07:16:43.098Z,27.25
2022-09-25T07:19:09.454Z,27.23
2022-09-25T07:21:35.802Z,27.21
2022-09-25T07:24:02.135Z,27.24
2022-09-25T07:26:28.498Z,27.21
2022-09-25T07:28:54.821Z,27.21
2022-09-25T07:31:21.227Z,27.24
2022-09-25T07:33:47.549Z,27.25
2022-09-25T07:36:13.897Z,27.21
2022-09-25T07:38:40.234Z,27.20
2022-09-25T07:41:06.609Z,27.21
2022-09-25T07:43:32.960Z,27.17
2022-09-25T07:45:59.315Z,27.15
2022-09-25T07:48:25.671Z,27.14
2022-09-25T07:50:52.020Z,27.12
2022-09-25T07:53:18.368Z,27.09
2022-09-25T07:55:44.731Z,27.10
2022-09-25T07:58:11.072Z,27.08
2022-09-25T08:00:37.429Z,27.11
2022-09-25T08:03:03.790Z,27.03
2022-09-25T08:05:30.103Z,27.03
2022-09-25T08:07:56.445Z,27.05
2022-09-25T08:10:24.982Z,27.02
2022-09-25T08:12:51.321Z,26.98
2022-09-25T08:15:17.667Z,26.96
2022-09-25T08:17:44.017Z,26.96
2022-09-25T08:20:10.369Z,26.91
2022-09-25T08:22:36.711Z,26.90
2022-09-25T08:25:03.058Z,26.89
2022-09-25T08:27:29.393Z,26.90
2022-09-25T08:29:55.733Z,26.86
2022-09-25T08:32:22.070Z,26.83
2022-09-25T08:34:48.774Z,26.81
2022-09-25T08:37:14.771Z,26.81
2022-09-25T08:39:41.115Z,26.79
2022-09-25T08:42:07.456Z,26.79
2022-09-25T08:44:33.807Z,26.79
2022-09-25T08:47:00.151Z,26.79
2022-09-25T08:49:26.494Z,26.73
2022-09-25T08:51:52.891Z,26.74
2022-09-25T08:54:19.244Z,26.72
2022-09-25T08:56:45.577Z,26.73
2022-09-25T08:59:11.915Z,26.79
2022-09-25T09:01:38.291Z,26.73
2022-09-25T09:04:04.600Z,26.67
2022-09-25T09:06:33.345Z,26.51
2022-09-25T09:08:59.692Z,26.37
2022-09-25T09:11:26.029Z,26.11
2022-09-25T09:13:52.409Z,25.82
2022-09-25T09:16:18.728Z,25.69
2022-09-25T09:18:45.055Z,25.63
2022-09-25T09:21:11.401Z,25.52
2022-09-25T09:23:37.786Z,25.48
2022-09-25T09:26:04.123Z,25.37
2022-09-25T09:28:30.462Z,25.25
2022-09-25T09:30:56.865Z,25.19
2022-09-25T09:33:23.150Z,25.09
2022-09-25T09:35:49.505Z,25.02
2022-09-25T09:38:15.861Z,24.99
2022-09-25T09:40:42.212Z,24.93
2022-09-25T09:43:08.520Z,24.82
2022-09-25T09:45:34.857Z,24.80
2022-09-25T09:48:01.197Z,24.70
2022-09-25T09:50:27.533Z,24.64
2022-09-25T09:52:53.874Z,24.51
2022-09-25T09:55:20.215Z,24.45
2022-09-25T09:57:46.556Z,24.37
2022-09-25T10:00:12.891Z,24.35
2022-09-25T10:02:39.379Z,24.23
2022-09-25T10:05:05.608Z,24.19
2022-09-25T10:07:31.961Z,24.12
2022-09-25T10:09:58.303Z,23.93
2022-09-25T10:12:24.703Z,23.92
2022-09-25T10:14:52.168Z,23.90
2022-09-25T10:17:17.454Z,23.90
2022-09-25T10:19:43.791Z,23.86
2022-09-25T10:22:10.171Z,23.80
2022-09-25T10:24:36.519Z,23.63
2022-09-25T10:27:02.868Z,23.68
2022-09-25T10:29:29.215Z,23.54
2022-09-25T10:31:55.558Z,23.51
2022-09-25T10:34:21.908Z,23.44
2022-09-25T10:36:48.281Z,23.38
2022-09-25T10:39:39.601Z,23.40
2022-09-25T10:41:40.970Z,23.35
2022-09-25T10:44:07.328Z,23.22
2022-09-25T10:46:33.721Z,23.13
2022-09-25T10:48:59.988Z,23.10
2022-09-25T10:51:26.333Z,23.09
2022-09-25T10:53:52.671Z,22.96
2022-09-25T10:56:19.016Z,22.98
2022-09-25T10:58:45.362Z,22.96
2022-09-25T11:01:11.772Z,22.90
2022-09-25T11:03:38.101Z,22.84
2022-09-25T11:06:04.451Z,22.79
2022-09-25T11:08:30.791Z,22.74
2022-09-25T11:10:57.192Z,22.65
2022-09-25T11:13:23.523Z,22.57
2022-09-25T11:15:49.869Z,22.47
2022-09-25T11:18:16.207Z,22.39
2022-09-25T11:20:42.559Z,22.29
2022-09-25T11:23:08.902Z,22.21
2022-09-25T11:25:35.261Z,22.15
2022-09-25T11:28:01.600Z,22.02
2022-09-25T11:30:27.946Z,21.99
2022-09-25T11:32:54.337Z,21.92
2022-09-25T11:35:20.709Z,21.81
2022-09-25T11:37:47.026Z,21.77
2022-09-25T11:40:13.474Z,21.63
2022-09-25T11:42:39.725Z,21.61
2022-09-25T11:45:06.068Z,21.55
2022-09-25T11:47:32.408Z,21.45
2022-09-25T11:49:58.767Z,21.38
2022-09-25T11:52:25.108Z,21.34
2022-09-25T11:54:51.448Z,21.29
2022-09-25T11:57:17.788Z,21.23
2022-09-25T11:59:44.160Z,21.19
2022-09-25T12:02:10.546Z,21.14
2022-09-25T12:04:41.265Z,21.10
2022-09-25T12:07:03.179Z,21.08
2022-09-25T12:09:29.516Z,20.97
2022-09-25T12:11:55.853Z,20.80
2022-09-25T12:14:22.194Z,20.68
2022-09-25T12:16:48.668Z,20.59
2022-09-25T12:19:14.931Z,20.47
2022-09-25T12:21:41.268Z,20.32
2022-09-25T12:24:07.674Z,20.00
2022-09-25T12:26:34.000Z,19.72
2022-09-25T12:29:00.338Z,19.51
2022-09-25T12:31:26.720Z,19.28
2022-09-25T12:33:53.025Z,18.83
2022-09-25T12:36:19.357Z,18.78
2022-09-25T12:38:45.692Z,18.13
2022-09-25T12:41:12.039Z,17.56
2022-09-25T12:43:38.376Z,17.29
2022-09-25T12:46:04.768Z,16.91
2022-09-25T12:48:31.053Z,16.72
2022-09-25T12:51:01.463Z,16.48
2022-09-25T12:53:23.729Z,16.42
2022-09-25T12:55:50.060Z,17.73
2022-09-25T12:58:16.401Z,18.10
2022-09-25T13:00:42.736Z,18.20
2022-09-25T13:03:09.075Z,18.13
2022-09-25T13:05:35.423Z,18.17
2022-09-25T13:08:01.762Z,18.05
2022-09-25T13:10:28.098Z,17.16
2022-09-25T13:12:54.444Z,16.22
2022-09-25T13:15:20.775Z,16.06
2022-09-25T13:17:47.125Z,15.82
2022-09-25T13:20:13.466Z,15.75
2022-09-25T13:22:39.810Z,15.59
2022-09-25T13:25:06.182Z,15.49
2022-09-25T13:27:37.355Z,15.50
2022-09-25T13:29:58.881Z,15.46
2022-09-25T13:32:25.230Z,15.55
2022-09-25T13:34:51.575Z,15.46
2022-09-25T13:37:17.925Z,15.50
2022-09-25T13:39:44.268Z,15.53
2022-09-25T13:42:10.621Z,15.67
2022-09-25T13:44:37.024Z,15.50
2022-09-25T13:47:03.341Z,15.53
2022-09-25T13:49:29.692Z,15.50
2022-09-25T13:51:56.030Z,15.41
2022-09-25T13:54:22.374Z,15.38
2022-09-25T13:56:48.736Z,16.88
2022-09-25T13:59:15.243Z,16.59
2022-09-25T14:01:41.641Z,16.77
2022-09-25T14:04:07.837Z,16.13
2022-09-25T14:06:38.855Z,16.53
2022-09-25T14:09:00.522Z,16.51
2022-09-25T14:11:26.875Z,16.82
2022-09-25T14:13:53.207Z,16.85
2022-09-25T14:16:19.589Z,17.55
2022-09-25T14:18:45.902Z,17.75
2022-09-25T14:21:12.248Z,17.78
2022-09-25T14:23:38.586Z,17.78
2022-09-25T14:26:04.939Z,17.85
2022-09-25T14:28:31.273Z,17.99
2022-09-25T14:30:57.633Z,18.16
2022-09-25T14:33:23.963Z,18.25
2022-09-25T14:35:50.310Z,18.06
2022-09-25T14:38:16.694Z,18.28
2022-09-25T14:40:43.116Z,18.70
2022-09-25T14:43:09.385Z,18.94
2022-09-25T14:45:35.770Z,19.07
2022-09-25T14:48:02.077Z,19.26
2022-09-25T14:50:28.419Z,19.62
2022-09-25T14:52:54.765Z,19.88
2022-09-25T14:55:21.133Z,20.05
2022-09-25T14:57:47.459Z,20.08
2022-09-25T15:00:13.854Z,20.51
2022-09-25T15:02:40.237Z,20.58
2022-09-25T15:05:06.513Z,20.71
2022-09-25T15:07:35.336Z,20.98
2022-09-25T15:10:01.712Z,21.00
2022-09-25T15:12:28.018Z,21.02
2022-09-25T15:14:54.381Z,21.10
2022-09-25T15:17:20.715Z,21.07
2022-09-25T15:19:47.054Z,21.18
2022-09-25T15:22:13.404Z,21.30
2022-09-25T15:24:39.735Z,21.24
2022-09-25T15:27:06.077Z,21.29
2022-09-25T15:29:32.660Z,21.32
2022-09-25T15:31:58.996Z,21.41
2022-09-25T15:34:25.330Z,21.36
2022-09-25T15:36:51.685Z,21.40
2022-09-25T15:39:18.020Z,21.48
2022-09-25T15:41:44.555Z,21.56
2022-09-25T15:44:11.068Z,21.56
2022-09-25T15:46:37.250Z,21.69
2022-09-25T15:49:03.586Z,21.70
2022-09-25T15:51:29.935Z,21.73
2022-09-25T15:53:56.269Z,21.74
2022-09-25T15:56:22.615Z,21.79
2022-09-25T15:58:48.953Z,21.82
2022-09-25T16:01:15.363Z,21.88
2022-09-25T16:03:41.646Z,21.93
2022-09-25T16:06:08.084Z,21.92
2022-09-25T16:08:34.417Z,22.02
2022-09-25T16:11:00.759Z,22.09
2022-09-25T16:13:27.103Z,22.03
2022-09-25T16:15:53.499Z,22.20
2022-09-25T16:18:19.775Z,22.23
2022-09-25T16:20:46.128Z,22.32
2022-09-25T16:23:12.462Z,22.32
2022-09-25T16:25:38.865Z,22.32
2022-09-25T16:28:05.151Z,22.19
2022-09-25T16:30:31.495Z,22.10
2022-09-25T16:32:57.831Z,21.99
2022-09-25T16:35:24.183Z,21.85
2022-09-25T16:37:50.511Z,21.84
2022-09-25T16:40:16.963Z,21.77
2022-09-25T16:42:43.260Z,21.84
2022-09-25T16:45:09.598Z,21.79
2022-09-25T16:47:35.937Z,21.85
2022-09-25T16:50:02.284Z,21.84
2022-09-25T16:52:28.618Z,21.87
2022-09-25T16:54:54.968Z,21.90
2022-09-25T16:57:21.308Z,21.92
2022-09-25T16:59:47.648Z,21.91
2022-09-25T17:02:14.146Z,22.03
2022-09-25T17:04:40.328Z,22.03
2022-09-25T17:07:06.686Z,22.09
2022-09-25T17:09:33.021Z,22.19
2022-09-25T17:11:59.353Z,22.13
2022-09-25T17:14:25.694Z,22.15
2022-09-25T17:16:52.031Z,22.34
2022-09-25T17:19:18.378Z,22.32
2022-09-25T17:21:44.710Z,22.39
2022-09-25T17:24:11.061Z,22.50
2022-09-25T17:26:37.410Z,22.35
2022-09-25T17:29:03.827Z,22.49
2022-09-25T17:31:30.183Z,22.64
2022-09-25T17:33:56.432Z,22.61
2022-09-25T17:36:22.770Z,22.86
2022-09-25T17:38:49.111Z,22.82
2022-09-25T17:41:15.446Z,22.92
2022-09-25T17:43:41.783Z,22.97
2022-09-25T17:46:08.188Z,23.00
2022-09-25T17:48:34.457Z,23.08
2022-09-25T17:51:00.795Z,23.01
2022-09-25T17:53:27.133Z,23.10
2022-09-25T17:55:54.153Z,23.20
2022-09-25T17:58:19.811Z,23.21
2022-09-25T18:00:46.145Z,23.21
2022-09-25T18:03:12.578Z,23.37
2022-09-25T18:05:38.824Z,23.35
2022-09-25T18:08:05.166Z,23.30
2022-09-25T18:10:31.498Z,23.23
2022-09-25T18:12:57.845Z,23.35
2022-09-25T18:15:24.357Z,23.32
2022-09-25T18:17:50.526Z,23.32
2022-09-25T18:20:16.894Z,23.35
2022-09-25T18:22:43.231Z,23.37
2022-09-25T18:25:09.567Z,23.45
2022-09-25T18:27:35.918Z,23.55
2022-09-25T18:30:02.250Z,23.50
2022-09-25T18:32:28.615Z,23.48
2022-09-25T18:34:54.945Z,23.52
2022-09-25T18:37:21.315Z,23.47
2022-09-25T18:39:47.647Z,23.64
2022-09-25T18:42:13.981Z,23.65
2022-09-25T18:44:42.869Z,23.61
2022-09-25T18:47:06.670Z,23.66
2022-09-25T18:49:33.000Z,23.92
2022-09-25T18:51:59.350Z,23.71
2022-09-25T18:54:25.694Z,23.87
2022-09-25T18:56:52.028Z,23.92
2022-09-25T18:59:18.360Z,23.89
2022-09-25T19:01:44.907Z,23.99
2022-09-25T19:04:11.091Z,23.90
2022-09-25T19:06:37.435Z,23.98
2022-09-25T19:09:03.773Z,24.00
2022-09-25T19:11:30.118Z,24.09
2022-09-25T19:13:56.454Z,24.02
2022-09-25T19:16:22.859Z,24.09
2022-09-25T19:18:49.126Z,24.10
2022-09-25T19:21:15.464Z,24.19
2022-09-25T19:23:41.793Z,24.25
2022-09-25T19:26:08.151Z,24.26
2022-09-25T19:28:34.465Z,24.30
2022-09-25T19:31:00.853Z,24.30
2022-09-25T19:33:27.180Z,24.32
2022-09-25T19:35:54.414Z,24.34
2022-09-25T19:38:20.748Z,24.35
2022-09-25T19:40:47.125Z,24.41
2022-09-25T19:43:13.430Z,24.41
2022-09-25T19:45:39.815Z,24.38
2022-09-25T19:48:06.160Z,24.32
2022-09-25T19:50:32.502Z,24.38
2022-09-25T19:52:58.857Z,24.41
2022-09-25T19:55:25.201Z,24.48
2022-09-25T19:57:51.530Z,24.40
2022-09-25T20:00:17.881Z,24.43
2022-09-25T20:02:44.258Z,24.54
2022-09-25T20:05:10.598Z,24.53
2022-09-25T20:07:36.933Z,24.67
2022-09-25T20:10:03.269Z,24.54
2022-09-25T20:12:29.609Z,24.58
2022-09-25T20:14:55.950Z,24.57
2022-09-25T20:17:22.294Z,24.58
2022-09-25T20:19:48.632Z,24.62
2022-09-25T20:22:14.974Z,24.61
2022-09-25T20:24:41.309Z,24.61
2022-09-25T20:27:07.640Z,24.63
2022-09-25T20:29:33.979Z,24.61
2022-09-25T20:32:00.321Z,24.73
2022-09-25T20:34:26.734Z,24.66
2022-09-25T20:36:53.070Z,24.70
2022-09-25T20:39:21.344Z,24.69
2022-09-25T20:41:45.749Z,24.70
2022-09-25T20:44:12.172Z,24.66
2022-09-25T20:46:38.493Z,24.73
2022-09-25T20:49:04.790Z,24.73
2022-09-25T20:51:31.126Z,24.73
2022-09-25T20:53:57.506Z,24.74
2022-09-25T20:56:23.838Z,24.77
2022-09-25T20:58:53.268Z,24.77
2022-09-25T21:01:16.573Z,24.78
2022-09-25T21:03:42.896Z,24.76
2022-09-25T21:06:09.228Z,24.73
2022-09-25T21:08:35.574Z,24.82
2022-09-25T21:11:01.930Z,24.80
2022-09-25T21:13:28.243Z,24.83
2022-09-25T21:15:54.581Z,24.85
2022-09-25T21:18:20.919Z,24.83
2022-09-25T21:20:47.262Z,24.85
2022-09-25T21:23:13.601Z,24.86
2022-09-25T21:25:39.939Z,24.86
2022-09-25T21:28:06.273Z,24.84
2022-09-25T21:30:32.690Z,24.90
2022-09-25T21:32:58.993Z,24.86
2022-09-25T21:35:25.363Z,24.91
2022-09-25T21:37:51.712Z,24.90
2022-09-25T21:40:18.119Z,24.92
2022-09-25T21:42:44.395Z,24.92
2022-09-25T21:45:10.730Z,24.90
2022-09-25T21:47:37.070Z,24.93
2022-09-25T21:50:03.406Z,24.91
2022-09-25T21:52:29.756Z,24.93
2022-09-25T21:54:56.120Z,24.89
2022-09-25T21:57:22.517Z,25.00
2022-09-25T21:59:48.864Z,24.99
2022-09-25T22:02:15.200Z,24.96
2022-09-25T22:04:41.564Z,25.06
2022-09-25T22:07:07.907Z,25.03
2022-09-25T22:12:14.597Z,25.06
2022-09-25T22:14:40.933Z,25.12
2022-09-25T22:17:07.348Z,25.10
2022-09-25T22:19:33.649Z,25.12
2022-09-25T22:22:00.005Z,25.12
2022-09-25T22:24:26.417Z,25.14
2022-09-25T22:26:52.807Z,25.13
2022-09-25T22:29:19.176Z,25.19
2022-09-25T22:31:45.512Z,25.18
2022-09-25T22:34:11.864Z,25.20
2022-09-25T22:36:38.234Z,25.28
2022-09-25T22:39:04.722Z,25.19
2022-09-25T22:41:31.056Z,25.24
2022-09-25T22:44:00.531Z,25.28
2022-09-25T22:46:23.846Z,25.28
2022-09-25T22:48:50.136Z,25.29
2022-09-25T22:51:16.484Z,25.29
2022-09-25T22:53:42.847Z,25.28
2022-09-25T22:56:09.179Z,25.35
2022-09-25T22:58:35.541Z,25.31
2022-09-25T23:01:01.958Z,25.38
2022-09-25T23:03:28.241Z,25.34
2022-09-25T23:05:54.590Z,25.46
2022-09-25T23:08:20.967Z,25.53
2022-09-25T23:11:06.063Z,25.41
2022-09-25T23:13:13.684Z,25.52
2022-09-25T23:15:40.023Z,25.34
2022-09-25T23:18:06.366Z,25.49
2022-09-25T23:20:32.726Z,25.54
2022-09-25T23:22:59.072Z,25.38
2022-09-25T23:25:25.408Z,25.47
2022-09-25T23:27:51.775Z,25.52
2022-09-25T23:30:18.148Z,25.56
2022-09-25T23:32:44.538Z,25.58
2022-09-25T23:35:10.870Z,25.55
2022-09-25T23:37:37.249Z,25.51
2022-09-25T23:40:03.584Z,25.44
2022-09-25T23:42:29.937Z,25.65
2022-09-25T23:44:56.359Z,25.64
2022-09-25T23:47:22.702Z,25.70
2022-09-25T23:49:49.057Z,25.63
2022-09-25T23:52:15.405Z,25.70
2022-09-25T23:54:41.761Z,25.64
2022-09-25T23:57:08.106Z,25.73
2022-09-25T23:59:34.474Z,25.59
